EZY87G LFBH-EGCC
Flight info
| Callsign | EZY87G |
|---|---|
| Flight time | 1h 12m |
| Altitude | 32000 |
| Route | LUSON DCT TIRAV DCT FECHO DCT AKIKI/N0423F330 DCT AVANT/N0418F320 UM184 HEMEL T420 ELVOS |
| Aircraft | A320/M-SDE3FGHIRWY/LB1 |
Departure
| Time | 2026-05-04 09:17 |
|---|---|
| Airport | La Rochelle Île de Ré Airport (LFBH) |
Arrival
| Time | 2026-05-04 10:30 |
|---|---|
| Airport | Manchester Airport (EGCC) |
| Time | Latitude | Longitude | Altitude | Speed | Heading |
|---|---|---|---|---|---|
| 2026-05-04 08:55 | 46.17658 | -1.19382 | 68 ft | 0 kts | 318° |
| 2026-05-04 09:11 | 46.17661 | -1.19386 | 61 ft | 2 kts | 318° |
| 2026-05-04 09:12 | 46.17675 | -1.19405 | 58 ft | 1 kts | 318° |
| 2026-05-04 09:12 | 46.17694 | -1.19454 | 66 ft | 11 kts | 282° |
| 2026-05-04 09:14 | 46.17907 | -1.19051 | 67 ft | 22 kts | 92° |
| 2026-05-04 09:14 | 46.17902 | -1.18824 | 66 ft | 24 kts | 92° |
| 2026-05-04 09:14 | 46.17893 | -1.18586 | 68 ft | 23 kts | 93° |
| 2026-05-04 09:14 | 46.17888 | -1.18368 | 75 ft | 22 kts | 92° |
| 2026-05-04 09:15 | 46.17870 | -1.18228 | 73 ft | 7 kts | 123° |
| 2026-05-04 09:15 | 46.17875 | -1.18202 | 74 ft | 2 kts | 27° |
| 2026-05-04 09:15 | 46.17883 | -1.18229 | 72 ft | 4 kts | 275° |
| 2026-05-04 09:15 | 46.17883 | -1.18236 | 70 ft | 0 kts | 271° |
| 2026-05-04 09:17 | 46.20368 | -1.24575 | 2411 ft | 187 kts | 347° |
| 2026-05-04 09:18 | 46.21695 | -1.25028 | 2781 ft | 210 kts | 347° |
| 2026-05-04 09:18 | 46.23200 | -1.25549 | 3159 ft | 235 kts | 346° |
| 2026-05-04 09:18 | 46.24860 | -1.26129 | 3657 ft | 254 kts | 346° |
| 2026-05-04 09:18 | 46.26605 | -1.26742 | 4438 ft | 261 kts | 346° |
| 2026-05-04 09:19 | 46.28393 | -1.27372 | 5191 ft | 268 kts | 346° |
| 2026-05-04 09:19 | 46.30220 | -1.28022 | 6016 ft | 273 kts | 346° |
| 2026-05-04 09:19 | 46.32084 | -1.28684 | 6826 ft | 278 kts | 346° |
| 2026-05-04 09:19 | 46.33363 | -1.29139 | 7312 ft | 281 kts | 346° |
| 2026-05-04 09:20 | 46.35288 | -1.29825 | 8059 ft | 288 kts | 345° |
| 2026-05-04 09:20 | 46.37243 | -1.30523 | 8898 ft | 291 kts | 345° |
| 2026-05-04 09:20 | 46.39219 | -1.31226 | 9732 ft | 294 kts | 345° |
| 2026-05-04 09:20 | 46.41230 | -1.31940 | 10375 ft | 305 kts | 345° |
| 2026-05-04 09:21 | 46.43365 | -1.32705 | 10615 ft | 327 kts | 345° |
| 2026-05-04 09:21 | 46.45628 | -1.33519 | 11039 ft | 340 kts | 345° |
| 2026-05-04 09:21 | 46.47915 | -1.34338 | 11601 ft | 346 kts | 345° |
| 2026-05-04 09:21 | 46.50297 | -1.35188 | 12327 ft | 350 kts | 345° |
| 2026-05-04 09:22 | 46.52671 | -1.36087 | 13022 ft | 355 kts | 344° |
| 2026-05-04 09:22 | 46.55069 | -1.37051 | 13695 ft | 360 kts | 343° |
| 2026-05-04 09:22 | 46.57460 | -1.38039 | 14305 ft | 364 kts | 343° |
| 2026-05-04 09:22 | 46.59932 | -1.38937 | 14827 ft | 369 kts | 350° |
| 2026-05-04 09:23 | 46.62505 | -1.39247 | 15424 ft | 374 kts | 357° |
| 2026-05-04 09:23 | 46.65118 | -1.39401 | 16049 ft | 378 kts | 357° |
| 2026-05-04 09:23 | 46.67758 | -1.39554 | 16669 ft | 382 kts | 357° |
| 2026-05-04 09:23 | 46.70426 | -1.39708 | 17259 ft | 386 kts | 357° |
| 2026-05-04 09:25 | 46.89852 | -1.40869 | 20837 ft | 412 kts | 356° |
| 2026-05-04 09:25 | 46.92729 | -1.41045 | 21300 ft | 416 kts | 356° |
| 2026-05-04 09:26 | 46.95633 | -1.41225 | 21742 ft | 418 kts | 356° |
| 2026-05-04 09:26 | 46.98559 | -1.41406 | 22288 ft | 423 kts | 356° |
| 2026-05-04 09:26 | 47.01517 | -1.41586 | 22866 ft | 428 kts | 356° |
| 2026-05-04 09:26 | 47.04507 | -1.41768 | 23367 ft | 432 kts | 356° |
| 2026-05-04 09:27 | 47.07519 | -1.41952 | 23747 ft | 435 kts | 356° |
| 2026-05-04 09:27 | 47.10555 | -1.42137 | 24114 ft | 438 kts | 356° |
| 2026-05-04 09:27 | 47.13611 | -1.42322 | 24493 ft | 441 kts | 356° |
| 2026-05-04 09:27 | 47.16687 | -1.42508 | 24859 ft | 444 kts | 356° |
| 2026-05-04 09:28 | 47.19786 | -1.42694 | 25226 ft | 446 kts | 356° |
| 2026-05-04 09:28 | 47.22898 | -1.42882 | 25583 ft | 449 kts | 356° |
| 2026-05-04 09:28 | 47.26024 | -1.43076 | 25934 ft | 451 kts | 356° |
| 2026-05-04 09:28 | 47.29169 | -1.43272 | 26283 ft | 454 kts | 356° |
| 2026-05-04 09:29 | 47.32335 | -1.43467 | 26625 ft | 456 kts | 356° |
| 2026-05-04 09:29 | 47.35520 | -1.43659 | 26966 ft | 459 kts | 356° |
| 2026-05-04 09:29 | 47.38717 | -1.43852 | 27304 ft | 460 kts | 356° |
| 2026-05-04 09:29 | 47.41928 | -1.44051 | 27608 ft | 462 kts | 356° |
| 2026-05-04 09:30 | 47.45160 | -1.44256 | 27898 ft | 466 kts | 356° |
| 2026-05-04 09:30 | 47.48414 | -1.44461 | 28232 ft | 469 kts | 356° |
| 2026-05-04 09:30 | 47.51684 | -1.44665 | 28560 ft | 472 kts | 356° |
| 2026-05-04 09:30 | 47.54969 | -1.44868 | 28890 ft | 474 kts | 356° |
| 2026-05-04 09:31 | 47.58275 | -1.45069 | 29211 ft | 476 kts | 356° |
| 2026-05-04 09:31 | 47.61594 | -1.45269 | 29525 ft | 479 kts | 356° |
| 2026-05-04 09:31 | 47.64931 | -1.45472 | 29828 ft | 481 kts | 356° |
| 2026-05-04 09:31 | 47.68244 | -1.45678 | 30104 ft | 483 kts | 356° |
| 2026-05-04 09:32 | 47.71611 | -1.45891 | 30356 ft | 485 kts | 356° |
| 2026-05-04 09:32 | 47.74990 | -1.46103 | 30614 ft | 487 kts | 356° |
| 2026-05-04 09:34 | 47.98527 | -1.47100 | 31998 ft | 467 kts | 0° |
| 2026-05-04 09:34 | 48.01767 | -1.46934 | 32005 ft | 465 kts | 1° |
| 2026-05-04 09:34 | 48.08219 | -1.46577 | 32000 ft | 464 kts | 1° |
| 2026-05-04 09:35 | 48.14673 | -1.46326 | 32000 ft | 464 kts | 0° |
| 2026-05-04 09:35 | 48.21127 | -1.46146 | 31997 ft | 463 kts | 360° |
| 2026-05-04 09:37 | 48.46872 | -1.45338 | 31993 ft | 462 kts | 0° |
| 2026-05-04 09:38 | 48.53299 | -1.45125 | 31993 ft | 461 kts | 0° |
| 2026-05-04 09:38 | 48.59726 | -1.44918 | 31990 ft | 462 kts | 0° |
| 2026-05-04 09:39 | 48.66149 | -1.44714 | 31990 ft | 461 kts | 0° |
| 2026-05-04 09:39 | 48.72576 | -1.44519 | 31990 ft | 462 kts | 0° |
| 2026-05-04 09:40 | 48.79003 | -1.44313 | 31989 ft | 462 kts | 0° |
| 2026-05-04 09:40 | 48.85430 | -1.44098 | 31993 ft | 462 kts | 0° |
| 2026-05-04 09:42 | 49.11115 | -1.43268 | 32003 ft | 462 kts | 0° |
| 2026-05-04 09:43 | 49.17540 | -1.43054 | 32005 ft | 462 kts | 0° |
| 2026-05-04 09:43 | 49.23965 | -1.42834 | 32004 ft | 461 kts | 0° |
| 2026-05-04 09:44 | 49.30442 | -1.42619 | 32012 ft | 461 kts | 0° |
| 2026-05-04 09:46 | 49.56025 | -1.41770 | 32020 ft | 460 kts | 0° |
| 2026-05-04 09:46 | 49.62350 | -1.40457 | 32017 ft | 460 kts | 14° |
| 2026-05-04 09:47 | 49.68565 | -1.38087 | 32016 ft | 460 kts | 14° |
| 2026-05-04 09:49 | 49.93408 | -1.28588 | 32007 ft | 461 kts | 14° |
| 2026-05-04 09:51 | 50.15191 | -1.20164 | 32021 ft | 461 kts | 14° |
| 2026-05-04 09:51 | 50.21406 | -1.17757 | 32020 ft | 460 kts | 14° |
| 2026-05-04 09:52 | 50.27616 | -1.15321 | 32019 ft | 460 kts | 14° |
| 2026-05-04 09:52 | 50.33816 | -1.12884 | 32019 ft | 459 kts | 14° |
| 2026-05-04 09:53 | 50.40012 | -1.10457 | 32015 ft | 459 kts | 13° |
| 2026-05-04 09:53 | 50.46207 | -1.08038 | 32019 ft | 459 kts | 13° |
| 2026-05-04 09:54 | 50.52395 | -1.05609 | 32016 ft | 458 kts | 13° |
| 2026-05-04 09:54 | 50.58577 | -1.03161 | 32017 ft | 458 kts | 14° |
| 2026-05-04 09:55 | 50.64721 | -1.00715 | 32015 ft | 458 kts | 13° |
| 2026-05-04 09:55 | 50.70882 | -0.98268 | 32020 ft | 457 kts | 13° |
| 2026-05-04 09:56 | 50.77039 | -0.95817 | 32023 ft | 456 kts | 13° |
| 2026-05-04 09:56 | 50.83183 | -0.93323 | 31991 ft | 456 kts | 15° |
| 2026-05-04 09:57 | 50.89238 | -0.90352 | 31997 ft | 456 kts | 18° |
| 2026-05-04 09:57 | 50.95247 | -0.87087 | 32002 ft | 456 kts | 18° |
| 2026-05-04 09:58 | 51.01250 | -0.83861 | 32006 ft | 456 kts | 18° |
| 2026-05-04 09:58 | 51.07275 | -0.80716 | 32007 ft | 456 kts | 17° |
| 2026-05-04 10:00 | 51.31379 | -0.68140 | 32016 ft | 456 kts | 18° |
| 2026-05-04 10:04 | 51.73172 | -0.45919 | 32077 ft | 450 kts | 16° |
| 2026-05-04 10:04 | 51.76216 | -0.44853 | 32077 ft | 447 kts | 4° |
| 2026-05-04 10:04 | 51.79005 | -0.44841 | 32025 ft | 443 kts | 350° |
| 2026-05-04 10:04 | 51.81973 | -0.46020 | 32025 ft | 436 kts | 334° |
| 2026-05-04 10:05 | 51.84644 | -0.48263 | 32025 ft | 432 kts | 327° |
| 2026-05-04 10:05 | 51.89828 | -0.53164 | 32021 ft | 431 kts | 326° |
| 2026-05-04 10:06 | 51.94123 | -0.57261 | 32016 ft | 431 kts | 326° |
| 2026-05-04 10:06 | 51.99304 | -0.62188 | 32017 ft | 432 kts | 326° |
| 2026-05-04 10:08 | 52.14744 | -0.76915 | 31082 ft | 421 kts | 326° |
| 2026-05-04 10:08 | 52.17263 | -0.79328 | 30585 ft | 418 kts | 325° |
| 2026-05-04 10:08 | 52.19761 | -0.81725 | 30093 ft | 415 kts | 325° |
| 2026-05-04 10:08 | 52.22243 | -0.84111 | 29570 ft | 411 kts | 325° |
| 2026-05-04 10:09 | 52.24692 | -0.86461 | 29110 ft | 406 kts | 325° |
| 2026-05-04 10:09 | 52.27111 | -0.88783 | 28656 ft | 401 kts | 325° |
| 2026-05-04 10:09 | 52.29492 | -0.91082 | 28224 ft | 395 kts | 326° |
| 2026-05-04 10:09 | 52.31842 | -0.93358 | 27779 ft | 390 kts | 326° |
| 2026-05-04 10:10 | 52.34162 | -0.95609 | 27349 ft | 386 kts | 326° |
| 2026-05-04 10:10 | 52.36453 | -0.97834 | 26923 ft | 381 kts | 326° |
| 2026-05-04 10:10 | 52.38722 | -1.00038 | 26504 ft | 377 kts | 327° |
| 2026-05-04 10:10 | 52.40968 | -1.02219 | 26072 ft | 374 kts | 327° |
| 2026-05-04 10:11 | 52.43165 | -1.04352 | 25638 ft | 371 kts | 327° |
| 2026-05-04 10:11 | 52.45379 | -1.06507 | 25197 ft | 368 kts | 327° |
| 2026-05-04 10:11 | 52.47574 | -1.08646 | 24749 ft | 366 kts | 327° |
| 2026-05-04 10:11 | 52.49757 | -1.10777 | 24294 ft | 364 kts | 326° |
| 2026-05-04 10:12 | 52.51933 | -1.12902 | 23846 ft | 363 kts | 327° |
| 2026-05-04 10:12 | 52.54098 | -1.15017 | 23344 ft | 361 kts | 327° |
| 2026-05-04 10:12 | 52.56252 | -1.17124 | 22879 ft | 359 kts | 327° |
| 2026-05-04 10:12 | 52.58391 | -1.19219 | 22430 ft | 356 kts | 327° |
| 2026-05-04 10:13 | 52.60514 | -1.21302 | 21983 ft | 354 kts | 327° |
| 2026-05-04 10:13 | 52.62622 | -1.23374 | 21533 ft | 352 kts | 327° |
| 2026-05-04 10:13 | 52.64718 | -1.25438 | 21114 ft | 350 kts | 327° |
| 2026-05-04 10:13 | 52.66802 | -1.27495 | 20683 ft | 348 kts | 327° |
| 2026-05-04 10:14 | 52.68875 | -1.29540 | 20259 ft | 346 kts | 327° |
| 2026-05-04 10:14 | 52.70938 | -1.31581 | 19840 ft | 345 kts | 326° |
| 2026-05-04 10:16 | 52.85085 | -1.46052 | 16836 ft | 336 kts | 326° |
| 2026-05-04 10:16 | 52.87045 | -1.48061 | 16423 ft | 335 kts | 326° |
| 2026-05-04 10:16 | 52.89025 | -1.50090 | 16010 ft | 334 kts | 326° |
| 2026-05-04 10:16 | 52.90996 | -1.52114 | 15601 ft | 333 kts | 326° |
| 2026-05-04 10:17 | 52.92963 | -1.54137 | 15175 ft | 332 kts | 326° |
| 2026-05-04 10:17 | 52.94925 | -1.56157 | 14767 ft | 331 kts | 327° |
| 2026-05-04 10:19 | 53.07672 | -1.71391 | 11917 ft | 306 kts | 309° |
| 2026-05-04 10:19 | 53.09046 | -1.74065 | 11669 ft | 300 kts | 309° |
| 2026-05-04 10:19 | 53.10393 | -1.76678 | 11402 ft | 296 kts | 309° |
| 2026-05-04 10:19 | 53.11732 | -1.79267 | 11045 ft | 294 kts | 309° |
| 2026-05-04 10:20 | 53.13055 | -1.81824 | 10506 ft | 290 kts | 309° |
| 2026-05-04 10:20 | 53.14360 | -1.84354 | 10086 ft | 287 kts | 309° |
| 2026-05-04 10:20 | 53.15661 | -1.86885 | 9690 ft | 287 kts | 309° |
| 2026-05-04 10:20 | 53.16952 | -1.89403 | 9323 ft | 285 kts | 309° |
| 2026-05-04 10:21 | 53.18233 | -1.91903 | 8961 ft | 282 kts | 309° |
| 2026-05-04 10:21 | 53.19502 | -1.94384 | 8614 ft | 278 kts | 309° |
| 2026-05-04 10:21 | 53.20752 | -1.96826 | 8308 ft | 274 kts | 309° |
| 2026-05-04 10:21 | 53.21970 | -1.99204 | 8185 ft | 264 kts | 309° |
| 2026-05-04 10:22 | 53.23640 | -2.04371 | 7874 ft | 254 kts | 280° |
| 2026-05-04 10:22 | 53.23722 | -2.07316 | 7536 ft | 255 kts | 267° |
| 2026-05-04 10:22 | 53.23610 | -2.10265 | 7180 ft | 255 kts | 267° |
| 2026-05-04 10:23 | 53.23501 | -2.13219 | 6817 ft | 255 kts | 267° |
| 2026-05-04 10:23 | 53.23392 | -2.16175 | 6449 ft | 255 kts | 267° |
| 2026-05-04 10:25 | 53.22628 | -2.36552 | 3905 ft | 241 kts | 267° |
| 2026-05-04 10:25 | 53.22524 | -2.39269 | 3791 ft | 228 kts | 267° |
| 2026-05-04 10:25 | 53.22471 | -2.41801 | 3681 ft | 209 kts | 278° |
| 2026-05-04 10:25 | 53.22978 | -2.43902 | 3597 ft | 187 kts | 310° |
| 2026-05-04 10:26 | 53.23931 | -2.45159 | 3523 ft | 165 kts | 338° |
| 2026-05-04 10:26 | 53.24986 | -2.45548 | 3256 ft | 152 kts | 1° |
| 2026-05-04 10:26 | 53.25993 | -2.45190 | 2941 ft | 144 kts | 25° |
| 2026-05-04 10:26 | 53.26807 | -2.44219 | 2543 ft | 146 kts | 48° |
| 2026-05-04 10:27 | 53.27451 | -2.42909 | 2164 ft | 144 kts | 51° |
| 2026-05-04 10:27 | 53.28069 | -2.41635 | 1906 ft | 139 kts | 52° |
| 2026-05-04 10:27 | 53.28677 | -2.40385 | 1688 ft | 138 kts | 52° |
| 2026-05-04 10:27 | 53.29280 | -2.39142 | 1485 ft | 138 kts | 52° |
| 2026-05-04 10:28 | 53.29884 | -2.37899 | 1299 ft | 137 kts | 52° |
| 2026-05-04 10:28 | 53.30485 | -2.36664 | 1096 ft | 136 kts | 51° |
| 2026-05-04 10:28 | 53.31084 | -2.35437 | 893 ft | 136 kts | 52° |
| 2026-05-04 10:28 | 53.31670 | -2.34219 | 706 ft | 136 kts | 51° |
| 2026-05-04 10:29 | 53.32275 | -2.32961 | 537 ft | 138 kts | 51° |
| 2026-05-04 10:29 | 53.32877 | -2.31725 | 348 ft | 136 kts | 51° |
| 2026-05-04 10:29 | 53.33463 | -2.30526 | 237 ft | 132 kts | 52° |
| 2026-05-04 10:29 | 53.33960 | -2.29490 | 226 ft | 92 kts | 51° |
| 2026-05-04 10:30 | 53.34253 | -2.28882 | 227 ft | 45 kts | 51° |
| 2026-05-04 10:30 | 53.34400 | -2.28624 | 225 ft | 18 kts | 34° |
| 2026-05-04 10:30 | 53.34510 | -2.28533 | 229 ft | 18 kts | 22° |
| 2026-05-04 10:30 | 53.34633 | -2.28451 | 230 ft | 19 kts | 23° |
| 2026-05-04 10:31 | 53.34748 | -2.28326 | 230 ft | 21 kts | 51° |
| 2026-05-04 10:31 | 53.34840 | -2.28132 | 230 ft | 22 kts | 52° |
| 2026-05-04 10:32 | 53.35345 | -2.27188 | 245 ft | 1 kts | 2° |
| 2026-05-04 10:33 | 53.35347 | -2.27188 | 245 ft | 2 kts | 2° |
| 2026-05-04 10:33 | 53.35409 | -2.27236 | 246 ft | 14 kts | 325° |
| 2026-05-04 10:33 | 53.35475 | -2.27324 | 248 ft | 10 kts | 321° |
| 2026-05-04 10:33 | 53.35528 | -2.27397 | 248 ft | 10 kts | 320° |
| 2026-05-04 10:34 | 53.35553 | -2.27431 | 246 ft | 0 kts | 320° |
| 2026-05-04 10:34 | 53.35553 | -2.27432 | 246 ft | 1 kts | 320° |
| 2026-05-04 10:34 | 53.35569 | -2.27454 | 245 ft | 8 kts | 320° |
| 2026-05-04 10:35 | 53.35617 | -2.27520 | 245 ft | 8 kts | 321° |
| 2026-05-04 10:35 | 53.35675 | -2.27596 | 247 ft | 13 kts | 325° |
| 2026-05-04 10:35 | 53.35747 | -2.27650 | 250 ft | 10 kts | 339° |
| 2026-05-04 10:35 | 53.35828 | -2.27728 | 252 ft | 15 kts | 345° |
| 2026-05-04 10:36 | 53.35922 | -2.27727 | 255 ft | 14 kts | 2° |
| 2026-05-04 10:36 | 53.35999 | -2.27772 | 255 ft | 0 kts | 323° |
| 2026-05-04 10:37 | 53.36012 | -2.27787 | 255 ft | 8 kts | 323° |
| 2026-05-04 10:39 | 53.36315 | -2.28047 | 255 ft | 14 kts | 22° |
| 2026-05-04 10:39 | 53.36368 | -2.27972 | 255 ft | 8 kts | 43° |
| 2026-05-04 10:39 | 53.36391 | -2.27937 | 255 ft | 2 kts | 43° |
| 2026-05-04 10:40 | 53.36402 | -2.27920 | 255 ft | 4 kts | 38° |
| 2026-05-04 10:40 | 53.36440 | -2.27949 | 255 ft | 10 kts | 317° |
| 2026-05-04 10:40 | 53.36490 | -2.28011 | 255 ft | 8 kts | 328° |
| 2026-05-04 10:40 | 53.36528 | -2.28068 | 255 ft | 7 kts | 315° |
| 2026-05-04 10:41 | 53.36560 | -2.28119 | 255 ft | 6 kts | 315° |
| 2026-05-04 10:41 | 53.36577 | -2.28170 | 255 ft | 6 kts | 277° |
| 2026-05-04 10:41 | 53.36530 | -2.28273 | 255 ft | 13 kts | 224° |
| 2026-05-04 10:41 | 53.36464 | -2.28357 | 255 ft | 11 kts | 200° |
| 2026-05-04 10:42 | 53.36416 | -2.28453 | 255 ft | 14 kts | 274° |
| 2026-05-04 10:42 | 53.36474 | -2.28580 | 255 ft | 14 kts | 314° |
| 2026-05-04 10:42 | 53.36540 | -2.28691 | 255 ft | 13 kts | 315° |
| 2026-05-04 10:42 | 53.36608 | -2.28788 | 255 ft | 12 kts | 345° |
| 2026-05-04 10:43 | 53.36679 | -2.28744 | 255 ft | 7 kts | 41° |
| 2026-05-04 10:44 | 53.36735 | -2.28799 | 255 ft | 0 kts | 315° |